createdAt,value
2023-03-06T00:01:55.198Z,25.60
2023-03-06T00:04:22.843Z,23.70
2023-03-06T00:06:50.607Z,19.90
2023-03-06T00:09:18.278Z,28.70
2023-03-06T00:11:45.929Z,19.90
2023-03-06T00:14:13.694Z,20.40
2023-03-06T00:16:41.477Z,22.80
2023-03-06T00:19:09.224Z,15.80
2023-03-06T00:21:36.887Z,21.10
2023-03-06T00:24:04.657Z,20.90
2023-03-06T00:26:34.055Z,18.20
2023-03-06T00:29:01.710Z,18.40
2023-03-06T00:31:29.593Z,15.00
2023-03-06T00:33:57.347Z,13.70
2023-03-06T00:36:25.105Z,17.70
2023-03-06T00:38:52.870Z,13.70
2023-03-06T00:41:20.528Z,25.30
2023-03-06T00:43:48.297Z,12.10
2023-03-06T00:46:16.057Z,17.30
2023-03-06T00:48:43.716Z,18.30
2023-03-06T00:51:13.886Z,16.70
2023-03-06T00:53:41.822Z,15.20
2023-03-06T00:56:09.571Z,17.50
2023-03-06T00:58:37.948Z,12.50
2023-03-06T01:01:05.633Z,14.60
2023-03-06T01:03:33.375Z,10.90
2023-03-06T01:06:01.036Z,11.00
2023-03-06T01:08:28.898Z,13.80
2023-03-06T01:10:56.661Z,9.80
2023-03-06T01:13:24.325Z,7.10
2023-03-06T01:15:51.984Z,8.40
2023-03-06T01:18:19.747Z,18.60
2023-03-06T01:20:47.614Z,12.70
2023-03-06T01:23:15.275Z,11.10
2023-03-06T01:25:42.936Z,6.70
2023-03-06T01:28:10.699Z,18.30
2023-03-06T01:30:38.363Z,24.20
2023-03-06T01:33:06.023Z,30.90
2023-03-06T01:35:33.712Z,25.80
2023-03-06T01:38:01.552Z,20.10
2023-03-06T01:40:29.319Z,17.60
2023-03-06T01:42:56.980Z,10.50
2023-03-06T01:45:24.645Z,24.10
2023-03-06T01:47:52.304Z,35.20
2023-03-06T01:50:19.963Z,17.40
2023-03-06T01:52:47.628Z,12.60
2023-03-06T01:55:15.391Z,45.40
2023-03-06T01:57:43.163Z,9.20
2023-03-06T02:03:13.930Z,10.30
2023-03-06T02:05:41.783Z,10.40
2023-03-06T02:08:09.438Z,9.40
2023-03-06T02:10:37.069Z,6.90
2023-03-06T02:13:04.763Z,8.70
2023-03-06T02:15:32.428Z,7.30
2023-03-06T02:18:00.193Z,5.00
2023-03-06T02:20:27.952Z,7.10
2023-03-06T02:22:55.613Z,8.50
2023-03-06T02:25:23.276Z,7.00
2023-03-06T02:27:51.043Z,6.40
2023-03-06T02:30:18.706Z,9.20
2023-03-06T02:32:46.567Z,10.90
2023-03-06T02:35:14.229Z,6.50
2023-03-06T02:37:41.891Z,8.50
2023-03-06T02:40:09.551Z,11.90
2023-03-06T02:42:37.213Z,10.70
2023-03-06T02:45:05.185Z,8.80
2023-03-06T02:47:32.944Z,5.70
2023-03-06T02:50:00.609Z,6.60
2023-03-06T02:52:28.364Z,33.90
2023-03-06T02:54:56.029Z,11.10
2023-03-06T02:57:23.896Z,10.80
2023-03-06T02:59:51.673Z,9.10
2023-03-06T03:02:19.422Z,10.90
2023-03-06T03:04:47.172Z,6.90
2023-03-06T03:07:15.064Z,8.10
2023-03-06T03:09:42.824Z,8.70
2023-03-06T03:12:10.594Z,22.40
2023-03-06T03:14:38.341Z,5.10
2023-03-06T03:17:06.006Z,10.90
2023-03-06T03:19:33.769Z,9.70
2023-03-06T03:22:01.437Z,7.40
2023-03-06T03:24:29.430Z,22.40
2023-03-06T03:26:57.176Z,16.30
2023-03-06T03:29:25.148Z,10.80
2023-03-06T03:31:53.109Z,10.30
2023-03-06T03:34:20.974Z,11.00
2023-03-06T03:36:48.639Z,55.70
2023-03-06T03:39:16.400Z,12.20
2023-03-06T03:41:44.058Z,14.00
2023-03-06T03:44:11.839Z,33.40
2023-03-06T03:46:39.648Z,12.50
2023-03-06T03:49:07.454Z,24.40
2023-03-06T03:51:35.216Z,25.50
2023-03-06T03:54:02.983Z,10.10
2023-03-06T03:56:30.743Z,20.60
2023-03-06T03:58:58.407Z,19.60
2023-03-06T04:01:26.166Z,11.10
2023-03-06T04:03:53.938Z,10.50
2023-03-06T04:06:21.592Z,10.50
2023-03-06T04:08:49.356Z,11.50
2023-03-06T04:11:17.022Z,9.60
2023-03-06T04:13:44.677Z,9.10
2023-03-06T04:16:12.388Z,11.00
2023-03-06T04:18:40.205Z,10.30
2023-03-06T04:21:07.970Z,15.50
2023-03-06T04:23:35.733Z,14.60
2023-03-06T04:26:03.401Z,13.20
2023-03-06T04:28:31.158Z,12.90
2023-03-06T04:30:58.941Z,12.60
2023-03-06T04:33:26.796Z,10.50
2023-03-06T04:35:54.626Z,19.30
2023-03-06T04:38:22.425Z,14.70
2023-03-06T04:40:50.108Z,16.20
2023-03-06T04:43:18.058Z,20.80
2023-03-06T04:45:45.853Z,21.10
2023-03-06T04:48:13.590Z,28.00
2023-03-06T04:50:41.347Z,20.50
2023-03-06T04:53:09.229Z,27.40
2023-03-06T04:55:36.978Z,27.10
2023-03-06T04:58:04.639Z,25.30
2023-03-06T05:00:32.301Z,22.60
2023-03-06T05:03:00.096Z,20.50
2023-03-06T05:05:28.034Z,15.00
2023-03-06T05:07:55.793Z,15.30
2023-03-06T05:10:23.556Z,23.20
2023-03-06T05:12:51.206Z,21.70
2023-03-06T05:15:18.880Z,22.40
2023-03-06T05:17:47.773Z,34.70
2023-03-06T05:20:15.540Z,50.00
2023-03-06T05:22:43.238Z,26.30
2023-03-06T05:25:11.063Z,45.90
2023-03-06T05:27:38.821Z,22.50
2023-03-06T05:30:06.490Z,21.40
2023-03-06T05:32:35.672Z,22.10
2023-03-06T05:35:03.859Z,15.70
2023-03-06T05:37:31.723Z,25.40
2023-03-06T05:39:59.432Z,27.20
2023-03-06T05:42:28.841Z,24.00
2023-03-06T05:44:56.670Z,24.80
2023-03-06T05:47:24.420Z,27.20
2023-03-06T05:49:52.184Z,31.10
2023-03-06T05:52:19.949Z,28.30
2023-03-06T05:54:47.815Z,30.20
2023-03-06T05:57:15.433Z,35.10
2023-03-06T05:59:43.305Z,33.50
2023-03-06T06:02:11.149Z,38.90
2023-03-06T06:04:38.868Z,31.30
2023-03-06T06:07:06.528Z,33.00
2023-03-06T06:09:34.291Z,30.20
2023-03-06T06:12:01.962Z,25.60
2023-03-06T06:14:29.717Z,32.90
2023-03-06T06:16:57.483Z,37.00
2023-03-06T06:19:25.145Z,33.20
2023-03-06T06:21:53.014Z,35.00
2023-03-06T06:24:20.802Z,44.10
2023-03-06T06:26:48.541Z,46.50
2023-03-06T06:29:16.200Z,31.70
2023-03-06T06:31:43.993Z,33.10
2023-03-06T06:34:11.726Z,31.20
2023-03-06T06:36:39.387Z,31.30
2023-03-06T06:39:07.158Z,51.60
2023-03-06T06:44:22.651Z,27.20
2023-03-06T06:47:21.173Z,38.00
2023-03-06T06:49:39.688Z,35.00
2023-03-06T06:52:07.455Z,43.90
2023-03-06T06:54:35.213Z,57.80
2023-03-06T06:57:02.888Z,30.10
2023-03-06T06:59:30.633Z,24.60
2023-03-06T07:01:58.396Z,38.90
2023-03-06T07:04:26.062Z,50.20
2023-03-06T07:06:53.721Z,30.30
2023-03-06T07:09:22.609Z,33.00
2023-03-06T07:11:50.404Z,29.40
2023-03-06T07:14:18.145Z,36.10
2023-03-06T07:16:45.818Z,29.80
2023-03-06T07:19:13.565Z,35.60
2023-03-06T07:21:41.328Z,27.80
2023-03-06T07:24:09.092Z,29.30
2023-03-06T07:26:36.963Z,36.40
2023-03-06T07:29:04.722Z,34.20
2023-03-06T07:31:32.454Z,33.00
2023-03-06T07:34:01.876Z,32.30
2023-03-06T07:36:30.882Z,25.20
2023-03-06T07:38:58.546Z,38.80
2023-03-06T07:41:26.206Z,41.30
2023-03-06T07:43:53.874Z,35.70
2023-03-06T07:46:21.580Z,38.90
2023-03-06T07:48:49.302Z,48.50
2023-03-06T07:51:17.071Z,36.90
2023-03-06T07:53:45.035Z,53.90
2023-03-06T07:56:12.693Z,84.80
2023-03-06T07:58:40.457Z,81.30
2023-03-06T08:01:08.219Z,59.30
2023-03-06T08:03:35.985Z,39.70
2023-03-06T08:06:03.856Z,40.20
2023-03-06T08:08:31.613Z,48.70
2023-03-06T08:10:59.277Z,58.20
2023-03-06T08:13:26.934Z,54.70
2023-03-06T08:15:54.910Z,37.40
2023-03-06T08:18:22.564Z,33.60
2023-03-06T08:20:50.242Z,36.80
2023-03-06T08:23:18.193Z,36.10
2023-03-06T08:25:45.955Z,30.10
2023-03-06T08:28:13.617Z,18.10
2023-03-06T08:30:41.688Z,32.60
2023-03-06T08:33:09.350Z,36.70
2023-03-06T08:35:37.074Z,37.50
2023-03-06T08:38:04.880Z,31.20
2023-03-06T08:40:32.640Z,26.10
2023-03-06T08:43:00.408Z,24.30
2023-03-06T08:45:28.088Z,27.10
2023-03-06T08:47:55.829Z,30.20
2023-03-06T08:50:23.601Z,25.00
2023-03-06T08:52:51.358Z,32.70
2023-03-06T08:55:19.017Z,25.60
2023-03-06T08:57:46.782Z,31.70
2023-03-06T09:00:14.598Z,24.90
2023-03-06T09:02:42.459Z,104.50
2023-03-06T09:05:10.279Z,34.50
2023-03-06T09:07:38.144Z,31.50
2023-03-06T09:10:05.908Z,26.50
2023-03-06T09:12:47.255Z,60.20
2023-03-06T09:15:17.103Z,30.90
2023-03-06T09:17:45.052Z,42.70
2023-03-06T09:20:12.954Z,49.70
2023-03-06T09:22:42.654Z,27.50
2023-03-06T09:25:11.232Z,28.50
2023-03-06T09:27:38.999Z,22.50
2023-03-06T09:30:06.663Z,40.50
2023-03-06T09:32:34.485Z,19.10
2023-03-06T09:35:02.197Z,20.10
2023-03-06T09:37:29.853Z,17.50
2023-03-06T09:39:58.035Z,15.90
2023-03-06T09:42:25.686Z,12.20
2023-03-06T09:44:53.517Z,15.30
2023-03-06T09:47:21.314Z,15.40
2023-03-06T09:49:48.982Z,15.90
2023-03-06T09:52:17.777Z,10.70
2023-03-06T09:54:46.342Z,11.20
2023-03-06T09:57:14.127Z,11.00
2023-03-06T09:59:41.874Z,9.80
2023-03-06T10:02:09.801Z,11.10
2023-03-06T10:04:37.632Z,8.50
2023-03-06T10:07:05.366Z,9.30
2023-03-06T10:09:33.035Z,11.00
2023-03-06T10:12:00.701Z,12.20
2023-03-06T10:14:28.685Z,9.30
2023-03-06T10:16:57.248Z,11.20
2023-03-06T10:19:25.008Z,9.80
2023-03-06T10:21:52.782Z,7.30
2023-03-06T10:24:20.612Z,10.90
2023-03-06T10:26:48.422Z,9.90
2023-03-06T10:29:16.275Z,7.00
2023-03-06T10:31:44.961Z,9.40
2023-03-06T10:34:12.665Z,10.90
2023-03-06T10:36:40.489Z,9.90
2023-03-06T10:39:08.249Z,10.90
2023-03-06T10:41:36.856Z,8.40
2023-03-06T10:44:04.622Z,8.30
2023-03-06T10:46:32.422Z,8.10
2023-03-06T10:49:00.167Z,8.90
2023-03-06T10:51:27.891Z,11.40
2023-03-06T10:53:55.654Z,9.10
2023-03-06T10:56:23.418Z,12.60
2023-03-06T10:58:51.082Z,6.80
2023-03-06T11:01:18.886Z,8.90
2023-03-06T11:03:46.711Z,9.40
2023-03-06T11:06:14.576Z,8.50
2023-03-06T11:08:42.246Z,8.70
2023-03-06T11:11:09.890Z,10.90
2023-03-06T11:13:37.534Z,13.00
2023-03-06T11:16:05.358Z,9.80
2023-03-06T11:18:35.442Z,10.20
2023-03-06T11:21:03.494Z,7.10
2023-03-06T11:23:31.173Z,6.70
2023-03-06T11:25:58.938Z,5.30
2023-03-06T11:28:26.596Z,5.70
2023-03-06T11:30:54.260Z,7.40
2023-03-06T11:33:21.917Z,8.60
2023-03-06T11:35:49.538Z,9.60
2023-03-06T11:38:17.242Z,6.60
2023-03-06T11:40:44.902Z,5.80
2023-03-06T11:43:12.564Z,6.40
2023-03-06T11:45:40.226Z,4.70
2023-03-06T11:48:07.887Z,7.70
2023-03-06T11:50:35.531Z,8.60
2023-03-06T11:53:03.229Z,8.60
2023-03-06T11:55:30.973Z,7.30
2023-03-06T11:57:58.739Z,8.60
2023-03-06T12:00:26.401Z,6.80
2023-03-06T12:02:54.064Z,7.80
2023-03-06T12:05:22.809Z,5.40
2023-03-06T12:07:50.617Z,7.00
2023-03-06T12:10:18.388Z,6.10
2023-03-06T12:12:46.145Z,7.60
2023-03-06T12:15:13.809Z,7.50
2023-03-06T12:17:41.465Z,4.00
2023-03-06T12:20:10.560Z,5.10
2023-03-06T12:22:38.237Z,5.30
2023-03-06T12:25:05.995Z,5.10
2023-03-06T12:27:33.751Z,5.10
2023-03-06T12:30:01.761Z,5.40
2023-03-06T12:32:29.917Z,3.90
2023-03-06T12:34:57.554Z,7.00
2023-03-06T12:37:25.320Z,6.40
2023-03-06T12:39:52.981Z,6.10
2023-03-06T12:42:23.574Z,5.70
2023-03-06T12:44:51.498Z,4.20
2023-03-06T12:47:19.782Z,3.40
2023-03-06T12:49:48.208Z,5.60
2023-03-06T12:52:18.708Z,4.70
2023-03-06T12:54:49.193Z,4.40
2023-03-06T12:57:16.954Z,4.40
2023-03-06T12:59:44.749Z,5.80
2023-03-06T13:02:12.499Z,4.40
2023-03-06T13:04:40.253Z,8.00
2023-03-06T13:07:08.012Z,5.80
2023-03-06T13:09:35.631Z,5.10
2023-03-06T13:12:03.335Z,5.80
2023-03-06T13:14:31.032Z,8.00
2023-03-06T13:16:58.832Z,7.90
2023-03-06T13:19:26.644Z,5.60
2023-03-06T13:21:54.400Z,45.60
2023-03-06T13:24:22.484Z,15.20
2023-03-06T13:26:50.231Z,16.00
2023-03-06T13:29:17.885Z,10.70
2023-03-06T13:31:45.585Z,6.70
2023-03-06T13:34:13.317Z,8.90
2023-03-06T13:36:40.986Z,13.90
2023-03-06T13:39:08.840Z,15.30
2023-03-06T13:41:37.824Z,15.40
2023-03-06T13:44:05.612Z,16.80
2023-03-06T13:46:35.388Z,16.10
2023-03-06T13:49:03.277Z,11.80
2023-03-06T13:51:30.935Z,10.10
2023-03-06T13:53:58.595Z,14.10
2023-03-06T13:56:26.263Z,13.30
2023-03-06T13:58:54.026Z,6.80
2023-03-06T14:01:21.725Z,6.00
2023-03-06T14:03:49.630Z,7.00
2023-03-06T14:06:17.310Z,4.40
2023-03-06T14:08:44.971Z,4.00
2023-03-06T14:11:12.631Z,5.90
2023-03-06T14:13:47.105Z,4.60
2023-03-06T14:16:15.522Z,7.80
2023-03-06T14:18:43.295Z,7.10
2023-03-06T14:21:13.554Z,13.10
2023-03-06T14:23:45.273Z,13.00
2023-03-06T14:26:15.912Z,15.80
2023-03-06T14:28:43.874Z,58.10
2023-03-06T14:31:11.554Z,66.20
2023-03-06T14:33:39.209Z,50.30
2023-03-06T14:36:10.139Z,21.10
2023-03-06T14:38:37.806Z,14.40
2023-03-06T14:41:05.463Z,18.40
2023-03-06T14:43:33.332Z,12.90
2023-03-06T14:46:01.092Z,13.50
2023-03-06T14:48:28.859Z,9.00
2023-03-06T14:50:56.659Z,19.90
2023-03-06T14:53:24.491Z,24.90
2023-03-06T14:55:53.388Z,27.20
2023-03-06T14:58:21.039Z,14.10
2023-03-06T15:00:49.735Z,28.60
2023-03-06T15:03:18.020Z,26.40
2023-03-06T15:05:45.778Z,22.20
2023-03-06T15:08:13.426Z,22.00
2023-03-06T15:10:43.455Z,10.40
2023-03-06T15:13:11.626Z,16.00
2023-03-06T15:15:39.379Z,22.60
2023-03-06T15:18:07.042Z,9.40
2023-03-06T15:20:34.807Z,12.10
2023-03-06T15:23:02.669Z,14.10
2023-03-06T15:25:30.460Z,11.50
2023-03-06T15:27:58.299Z,14.40
2023-03-06T15:30:26.070Z,11.10
2023-03-06T15:32:53.828Z,18.00
2023-03-06T15:35:21.520Z,19.50
2023-03-06T15:37:49.252Z,14.60
2023-03-06T15:40:16.883Z,12.00
2023-03-06T15:42:44.591Z,18.90
2023-03-06T15:45:12.245Z,13.80
2023-03-06T15:47:39.920Z,10.10
2023-03-06T15:50:07.564Z,17.90
2023-03-06T15:52:35.231Z,23.90
2023-03-06T15:55:03.002Z,19.80
2023-03-06T15:57:30.682Z,17.20
2023-03-06T15:59:58.421Z,46.70
2023-03-06T16:02:26.218Z,58.20
2023-03-06T16:04:54.073Z,78.10
2023-03-06T16:07:21.915Z,51.60
2023-03-06T16:09:49.690Z,65.20
2023-03-06T16:12:17.754Z,68.10
2023-03-06T16:14:45.510Z,72.20
2023-03-06T16:17:13.179Z,112.90
2023-03-06T16:19:40.832Z,36.90
2023-03-06T16:22:08.805Z,41.00
2023-03-06T16:24:37.383Z,31.70
2023-03-06T16:27:05.247Z,24.30
2023-03-06T16:29:33.013Z,24.70
2023-03-06T16:32:02.040Z,28.80
2023-03-06T16:34:29.973Z,28.70
2023-03-06T16:36:57.737Z,36.90
2023-03-06T16:39:25.506Z,33.40
2023-03-06T16:41:53.371Z,15.20
2023-03-06T16:44:21.132Z,18.70
2023-03-06T16:46:48.915Z,17.90
2023-03-06T16:49:17.091Z,32.60
2023-03-06T16:51:45.353Z,26.30
2023-03-06T16:54:13.114Z,23.40
2023-03-06T16:56:40.770Z,18.40
2023-03-06T16:59:08.534Z,18.60
2023-03-06T17:01:36.377Z,20.40
2023-03-06T17:04:04.168Z,25.00
2023-03-06T17:06:31.838Z,31.00
2023-03-06T17:09:00.330Z,23.80
2023-03-06T17:11:27.953Z,20.70
2023-03-06T17:13:55.635Z,23.10
2023-03-06T17:16:23.398Z,29.30
2023-03-06T17:18:51.168Z,32.60
2023-03-06T17:21:19.262Z,49.40
2023-03-06T17:23:47.097Z,57.90
2023-03-06T17:26:14.860Z,64.40
2023-03-06T17:28:42.626Z,60.40
2023-03-06T17:31:10.601Z,56.10
2023-03-06T17:33:38.256Z,56.20
2023-03-06T17:36:05.887Z,62.40
2023-03-06T17:38:33.576Z,88.50
2023-03-06T17:41:01.243Z,44.40
2023-03-06T17:43:29.006Z,70.60
2023-03-06T17:45:56.665Z,70.30
2023-03-06T17:48:24.326Z,93.90
2023-03-06T17:50:51.988Z,227.80
2023-03-06T17:53:19.756Z,391.70
2023-03-06T17:55:47.535Z,243.90
2023-03-06T17:58:15.152Z,172.40
2023-03-06T18:00:42.939Z,112.10
2023-03-06T18:03:10.609Z,99.60
2023-03-06T18:05:39.006Z,79.00
2023-03-06T18:08:08.482Z,107.20
2023-03-06T18:10:36.249Z,174.80
2023-03-06T18:13:04.424Z,116.60
2023-03-06T18:15:32.101Z,66.70
2023-03-06T18:17:59.848Z,65.60
2023-03-06T18:20:27.716Z,74.50
2023-03-06T18:22:55.477Z,70.60
2023-03-06T18:25:23.243Z,76.50
2023-03-06T18:27:50.903Z,65.90
2023-03-06T18:30:18.667Z,93.40
2023-03-06T18:32:46.379Z,97.90
2023-03-06T18:35:14.015Z,114.60
2023-03-06T18:37:41.653Z,483.60
2023-03-06T18:40:09.414Z,213.20
2023-03-06T18:42:37.186Z,88.40
2023-03-06T18:45:04.843Z,71.80
2023-03-06T18:47:33.940Z,66.90
2023-03-06T18:50:02.928Z,70.80
2023-03-06T18:52:30.594Z,41.20
2023-03-06T18:54:58.260Z,44.00
2023-03-06T18:57:26.039Z,90.50
2023-03-06T18:59:55.454Z,66.90
2023-03-06T19:02:23.184Z,75.60
2023-03-06T19:04:50.949Z,67.90
2023-03-06T19:07:18.613Z,53.70
2023-03-06T19:09:46.376Z,65.50
2023-03-06T19:12:14.148Z,111.60
2023-03-06T19:14:41.905Z,131.50
2023-03-06T19:17:09.567Z,104.10
2023-03-06T19:19:37.176Z,95.30
2023-03-06T19:22:04.897Z,64.50
2023-03-06T19:24:32.656Z,58.70
2023-03-06T19:27:00.427Z,53.40
2023-03-06T19:29:28.701Z,59.70
2023-03-06T19:31:57.524Z,57.50
2023-03-06T19:34:25.352Z,71.10
2023-03-06T19:36:53.331Z,70.60
2023-03-06T19:39:20.983Z,77.20
2023-03-06T19:41:48.849Z,79.60
2023-03-06T19:44:16.630Z,80.70
2023-03-06T19:46:44.378Z,80.70
2023-03-06T19:49:13.883Z,64.20
2023-03-06T19:51:41.655Z,52.70
2023-03-06T19:54:09.307Z,47.50
2023-03-06T19:56:37.073Z,53.20
2023-03-06T19:59:04.734Z,56.50
2023-03-06T20:01:34.448Z,60.50
2023-03-06T20:04:03.422Z,53.80
2023-03-06T20:06:31.615Z,50.00
2023-03-06T20:08:59.382Z,51.20
2023-03-06T20:11:27.152Z,38.90
2023-03-06T20:13:54.899Z,47.30
2023-03-06T20:16:22.659Z,40.90
2023-03-06T20:18:50.421Z,52.90
2023-03-06T20:21:18.082Z,70.20
2023-03-06T20:23:45.739Z,85.00
2023-03-06T20:26:13.716Z,105.30
2023-03-06T20:28:41.473Z,100.40
2023-03-06T20:31:09.253Z,74.50
2023-03-06T20:33:37.000Z,75.00
2023-03-06T20:36:04.683Z,78.10
2023-03-06T20:38:32.423Z,49.80
2023-03-06T20:41:00.105Z,54.20
2023-03-06T20:43:27.746Z,52.30
2023-03-06T20:45:55.410Z,59.50
2023-03-06T20:48:23.073Z,67.00
2023-03-06T20:50:50.735Z,51.30
2023-03-06T20:53:18.400Z,61.60
2023-03-06T20:55:48.486Z,63.90
2023-03-06T20:58:17.715Z,46.70
2023-03-06T21:00:45.378Z,53.10
2023-03-06T21:03:13.062Z,65.00
2023-03-06T21:05:40.817Z,54.20
2023-03-06T21:08:08.462Z,52.80
2023-03-06T21:10:36.331Z,66.80
2023-03-06T21:13:03.981Z,49.20
2023-03-06T21:15:31.757Z,52.70
2023-03-06T21:17:59.417Z,36.50
2023-03-06T21:20:27.183Z,45.90
2023-03-06T21:22:56.484Z,51.30
2023-03-06T21:25:24.247Z,44.10
2023-03-06T21:27:51.949Z,47.50
2023-03-06T21:30:19.674Z,41.20
2023-03-06T21:32:47.335Z,30.50
2023-03-06T21:35:15.100Z,37.10
2023-03-06T21:37:42.771Z,36.30
2023-03-06T21:40:10.525Z,39.20
2023-03-06T21:42:38.290Z,43.80
2023-03-06T21:45:05.992Z,58.10
2023-03-06T21:47:38.726Z,62.10
2023-03-06T21:50:06.603Z,44.70
2023-03-06T21:52:34.369Z,36.70
2023-03-06T21:55:02.126Z,25.60
2023-03-06T21:57:29.796Z,25.90
2023-03-06T21:59:57.558Z,35.50
2023-03-06T22:02:25.214Z,33.70
2023-03-06T22:04:53.596Z,26.50
2023-03-06T22:07:21.458Z,31.50
2023-03-06T22:09:49.223Z,39.60
2023-03-06T22:12:16.889Z,49.50
2023-03-06T22:14:44.651Z,80.60
2023-03-06T22:17:12.411Z,60.40
2023-03-06T22:19:40.072Z,72.10
2023-03-06T22:22:10.392Z,58.30
2023-03-06T22:24:38.471Z,49.70
2023-03-06T22:27:06.231Z,52.40
2023-03-06T22:29:33.891Z,55.60
2023-03-06T22:32:01.689Z,46.30
2023-03-06T22:34:29.624Z,56.50
2023-03-06T22:36:57.385Z,41.70
2023-03-06T22:39:25.149Z,45.90
2023-03-06T22:41:52.914Z,48.10
2023-03-06T22:44:20.680Z,50.60
2023-03-06T22:46:48.645Z,47.90
2023-03-06T22:49:17.228Z,49.80
2023-03-06T22:51:44.892Z,53.20
2023-03-06T22:54:12.651Z,56.90
2023-03-06T22:56:40.410Z,55.30
2023-03-06T22:59:08.025Z,53.80
2023-03-06T23:01:35.808Z,51.20
2023-03-06T23:04:03.789Z,47.30
2023-03-06T23:06:31.780Z,37.10
2023-03-06T23:08:59.752Z,49.50
2023-03-06T23:11:28.332Z,61.70
2023-03-06T23:13:55.996Z,63.60
2023-03-06T23:16:23.668Z,56.00
2023-03-06T23:18:51.423Z,62.80
2023-03-06T23:21:19.186Z,52.00
2023-03-06T23:23:46.952Z,56.40
2023-03-06T23:26:14.613Z,51.80
2023-03-06T23:28:42.274Z,42.50
2023-03-06T23:31:09.994Z,48.80
2023-03-06T23:33:39.028Z,36.20
2023-03-06T23:36:06.899Z,44.20
2023-03-06T23:38:34.558Z,42.30
2023-03-06T23:41:02.323Z,45.00
2023-03-06T23:43:30.087Z,51.30
2023-03-06T23:45:57.792Z,51.10
2023-03-06T23:48:25.616Z,51.00
2023-03-06T23:50:53.284Z,46.60
2023-03-06T23:53:21.041Z,46.00
2023-03-06T23:55:49.229Z,43.10
2023-03-06T23:58:17.020Z,43.40
